Appleton, Idaho
Current Conditions -  °F | °C
As of 8:53 AM on Friday 28 Nov 2014 (Local Time) from KJER Reporting Station
Clear Clear  
Wind Chill: 44°   Ceiling: Unl
Heat Index: 47°   Visibility: 10mi
Dew Point: 27°   Wind: 6mph
Humidity: 46%   Direction: 100°E
Pressure: 29.9"   Gusts: NA
Location:  42.7238°N, 114.338°W
Report Text: KJER 281553Z AUTO 10005KT 10SM CLR 08/M03 A2990 RMK AO2 SLP123 T00831028
Loading
Personal Weather Stations






























Interactive Weather Map New forecast layout! Learn more

10-Day Weather Forecast

Advertisements
Track Severe Weather on mobile